createdAt,value
2019-04-11T00:01:53.471Z,17.67
2019-04-11T00:04:20.487Z,19.30
2019-04-11T00:06:47.845Z,19.30
2019-04-11T00:09:16.679Z,19.13
2019-04-11T00:11:44.184Z,19.80
2019-04-11T00:14:12.107Z,23.70
2019-04-11T00:16:39.506Z,20.20
2019-04-11T00:19:07.306Z,20.73
2019-04-11T00:21:34.995Z,16.60
2019-04-11T00:24:02.760Z,19.13
2019-04-11T00:26:30.578Z,19.30
2019-04-11T00:28:58.350Z,20.67
2019-04-11T00:31:25.358Z,18.87
2019-04-11T00:33:52.337Z,19.17
2019-04-11T00:36:20.020Z,16.07
2019-04-11T00:38:47.837Z,20.50
2019-04-11T00:41:15.504Z,19.43
2019-04-11T00:43:43.948Z,19.10
2019-04-11T00:46:11.936Z,19.37
2019-04-11T00:48:39.047Z,17.13
2019-04-11T00:51:05.971Z,16.13
2019-04-11T00:53:33.991Z,18.93
2019-04-11T00:56:01.957Z,19.73
2019-04-11T00:58:29.746Z,19.20
2019-04-11T01:00:57.534Z,19.63
2019-04-11T01:03:24.805Z,16.83
2019-04-11T01:05:51.941Z,18.23
2019-04-11T01:08:19.804Z,17.93
2019-04-11T01:10:47.715Z,19.10
2019-04-11T01:13:15.710Z,17.43
2019-04-11T01:15:49.859Z,17.53
2019-04-11T01:18:18.044Z,16.17
2019-04-11T01:20:46.002Z,18.23
2019-04-11T01:23:13.092Z,14.93
2019-04-11T01:25:40.990Z,21.67
2019-04-11T01:28:07.883Z,18.80
2019-04-11T01:30:41.289Z,18.60
2019-04-11T01:33:08.292Z,20.40
2019-04-11T01:35:35.253Z,16.10
2019-04-11T01:38:02.335Z,18.03
2019-04-11T01:40:29.844Z,16.13
2019-04-11T01:42:57.659Z,16.77
2019-04-11T01:45:26.105Z,18.43
2019-04-11T01:48:12.286Z,14.63
2019-04-11T01:50:39.160Z,15.73
2019-04-11T01:53:06.811Z,15.27
2019-04-11T01:55:34.751Z,16.87
2019-04-11T01:58:02.565Z,17.20
2019-04-11T02:00:36.607Z,16.30
2019-04-11T02:03:04.919Z,13.80
2019-04-11T02:05:32.825Z,16.00
2019-04-11T02:08:00.769Z,16.40
2019-04-11T02:10:28.693Z,17.17
2019-04-11T02:12:56.325Z,16.57
2019-04-11T02:15:25.124Z,15.97
2019-04-11T02:17:52.126Z,18.87
2019-04-11T02:20:18.986Z,19.47
2019-04-11T02:23:06.659Z,14.43
2019-04-11T02:26:03.017Z,16.07
2019-04-11T02:28:30.932Z,16.43
2019-04-11T02:30:58.101Z,14.40
2019-04-11T02:33:26.742Z,14.93
2019-04-11T02:35:54.383Z,16.80
2019-04-11T02:38:23.550Z,13.37
2019-04-11T02:40:50.565Z,16.37
2019-04-11T02:43:18.032Z,15.00
2019-04-11T02:45:56.981Z,15.60
2019-04-11T02:48:16.092Z,17.10
2019-04-11T02:50:43.565Z,14.70
2019-04-11T02:53:10.623Z,15.73
2019-04-11T02:55:38.652Z,17.37
2019-04-11T02:58:07.348Z,14.03
2019-04-11T03:00:35.958Z,13.50
2019-04-11T03:03:05.676Z,13.20
2019-04-11T03:05:34.487Z,13.97
2019-04-11T03:08:06.972Z,19.00
2019-04-11T03:10:31.389Z,14.03
2019-04-11T03:13:00.766Z,13.53
2019-04-11T03:15:43.047Z,17.83
2019-04-11T03:18:02.016Z,13.37
2019-04-11T03:20:34.495Z,15.67
2019-04-11T03:23:00.127Z,13.77
2019-04-11T03:25:24.626Z,14.47
2019-04-11T03:27:53.750Z,16.60
2019-04-11T03:30:34.895Z,16.37
2019-04-11T03:36:07.031Z,18.00
2019-04-11T03:38:17.408Z,15.40
2019-04-11T03:40:38.685Z,13.63
2019-04-11T03:43:01.241Z,22.17
2019-04-11T03:45:38.146Z,12.73
2019-04-11T03:48:02.183Z,14.27
2019-04-11T03:50:18.907Z,19.20
2019-04-11T03:52:43.091Z,12.87
2019-04-11T03:55:11.139Z,15.03
2019-04-11T03:57:39.577Z,12.77
2019-04-11T04:00:06.693Z,13.77
2019-04-11T04:02:34.844Z,12.23
2019-04-11T04:05:03.807Z,13.47
2019-04-11T04:07:31.977Z,13.43
2019-04-11T04:10:00.368Z,16.17
2019-04-11T04:12:29.302Z,14.67
2019-04-11T04:15:09.135Z,13.00
2019-04-11T04:17:59.536Z,13.10
2019-04-11T04:20:59.639Z,12.00
2019-04-11T04:23:31.515Z,13.93
2019-04-11T04:26:00.891Z,16.10
2019-04-11T04:28:29.463Z,12.97
2019-04-11T04:30:57.902Z,14.07
2019-04-11T04:33:26.602Z,12.10
2019-04-11T04:35:55.809Z,13.20
2019-04-11T04:38:23.947Z,15.93
2019-04-11T04:41:07.432Z,14.03
2019-04-11T04:43:22.679Z,14.75
2019-04-11T04:46:08.818Z,13.57
2019-04-11T04:48:22.453Z,14.28
2019-04-11T04:50:48.797Z,16.17
2019-04-11T04:53:16.611Z,14.10
2019-04-11T04:55:45.687Z,12.63
2019-04-11T04:58:13.252Z,11.50
2019-04-11T05:00:40.362Z,16.67
2019-04-11T05:03:07.802Z,14.00
2019-04-11T05:05:35.817Z,11.63
2019-04-11T05:08:03.070Z,16.03
2019-04-11T05:10:30.605Z,12.20
2019-04-11T05:12:59.205Z,13.33
2019-04-11T05:15:26.380Z,13.00
2019-04-11T05:17:53.439Z,15.10
2019-04-11T05:20:21.831Z,13.97
2019-04-11T05:22:49.273Z,15.37
2019-04-11T05:25:16.340Z,10.83
2019-04-11T05:27:43.344Z,16.57
2019-04-11T05:30:11.249Z,17.93
2019-04-11T05:32:38.103Z,14.37
2019-04-11T05:35:05.317Z,11.03
2019-04-11T05:37:33.258Z,12.70
2019-04-11T05:40:00.885Z,14.97
2019-04-11T05:42:29.150Z,13.90
2019-04-11T05:44:56.960Z,15.83
2019-04-11T05:47:23.938Z,13.13
2019-04-11T05:50:13.581Z,12.50
2019-04-11T05:52:39.983Z,14.50
2019-04-11T05:55:11.751Z,12.57
2019-04-11T05:57:41.394Z,13.67
2019-04-11T06:00:14.108Z,14.03
2019-04-11T06:02:43.704Z,13.77
2019-04-11T06:05:17.253Z,17.93
2019-04-11T06:07:58.435Z,13.60
2019-04-11T06:10:28.858Z,16.27
2019-04-11T06:13:22.661Z,12.77
2019-04-11T06:15:51.919Z,12.77
2019-04-11T06:18:32.332Z,11.63
2019-04-11T06:20:57.841Z,11.83
2019-04-11T06:23:45.659Z,12.80
2019-04-11T06:26:32.337Z,13.07
2019-04-11T06:29:16.406Z,16.43
2019-04-11T06:32:00.243Z,19.07
2019-04-11T06:34:28.407Z,23.30
2019-04-11T06:37:11.810Z,12.47
2019-04-11T06:39:43.344Z,11.13
2019-04-11T06:42:29.895Z,11.60
2019-04-11T06:45:25.860Z,13.33
2019-04-11T06:48:18.443Z,11.07
2019-04-11T06:50:53.448Z,13.07
2019-04-11T06:53:25.917Z,11.83
2019-04-11T06:56:12.594Z,15.07
2019-04-11T06:58:43.797Z,10.87
2019-04-11T07:01:14.643Z,11.63
2019-04-11T07:03:46.866Z,9.77
2019-04-11T07:06:18.102Z,12.27
2019-04-11T07:08:58.907Z,9.87
2019-04-11T07:11:34.478Z,13.00
2019-04-11T07:14:27.036Z,11.83
2019-04-11T07:17:13.434Z,10.90
2019-04-11T07:20:04.649Z,11.77
2019-04-11T07:22:50.892Z,12.73
2019-04-11T07:25:43.193Z,10.07
2019-04-11T07:28:39.349Z,8.80
2019-04-11T07:31:25.445Z,10.73
2019-04-11T07:34:31.507Z,9.93
2019-04-11T07:37:15.016Z,9.33
2019-04-11T07:39:58.605Z,15.00
2019-04-11T07:43:08.147Z,10.30
2019-04-11T07:45:40.300Z,8.70
2019-04-11T07:48:12.900Z,12.20
2019-04-11T07:50:40.032Z,8.13
2019-04-11T07:53:07.143Z,10.73
2019-04-11T07:55:34.374Z,7.67
2019-04-11T07:58:19.679Z,8.30
2019-04-11T08:01:01.495Z,9.30
2019-04-11T08:03:42.007Z,17.83
2019-04-11T08:06:33.847Z,8.47
2019-04-11T08:09:26.725Z,12.63
2019-04-11T08:12:05.299Z,8.67
2019-04-11T08:14:51.103Z,7.57
2019-04-11T08:17:33.298Z,15.13
2019-04-11T08:20:11.676Z,10.80
2019-04-11T08:22:47.504Z,8.20
2019-04-11T08:25:25.678Z,8.40
2019-04-11T08:28:02.183Z,12.57
2019-04-11T08:30:34.803Z,9.27
2019-04-11T08:33:02.775Z,7.20
2019-04-11T08:35:52.010Z,7.50
2019-04-11T08:38:34.530Z,15.30
2019-04-11T08:41:07.399Z,6.40
2019-04-11T08:43:35.271Z,7.80
2019-04-11T08:46:06.705Z,6.70
2019-04-11T08:48:35.437Z,5.93
2019-04-11T08:51:05.170Z,6.67
2019-04-11T08:54:04.857Z,8.97
2019-04-11T08:56:32.014Z,11.67
2019-04-11T08:59:43.990Z,9.03
2019-04-11T09:02:35.465Z,7.97
2019-04-11T09:05:33.344Z,12.53
2019-04-11T09:08:20.430Z,8.70
2019-04-11T09:11:06.584Z,7.23
2019-04-11T09:14:06.115Z,11.60
2019-04-11T09:16:41.579Z,6.60
2019-04-11T09:19:16.772Z,10.50
2019-04-11T09:22:02.299Z,6.57
2019-04-11T09:24:48.986Z,8.67
2019-04-11T09:27:38.474Z,10.43
2019-04-11T09:30:12.989Z,8.20
2019-04-11T09:33:08.771Z,7.93
2019-04-11T09:35:37.391Z,9.07
2019-04-11T09:38:04.564Z,9.23
2019-04-11T09:40:41.592Z,8.07
2019-04-11T09:43:17.785Z,8.97
2019-04-11T09:45:56.164Z,7.67
2019-04-11T09:48:31.627Z,10.57
2019-04-11T09:51:07.763Z,9.37
2019-04-11T09:53:36.637Z,12.23
2019-04-11T09:56:24.956Z,7.87
2019-04-11T09:58:53.178Z,7.20
2019-04-11T10:01:56.135Z,7.50
2019-04-11T10:04:23.442Z,6.90
2019-04-11T10:07:14.101Z,10.77
2019-04-11T10:10:02.419Z,9.13
2019-04-11T10:12:48.628Z,6.60
2019-04-11T10:15:16.031Z,7.73
2019-04-11T10:18:01.615Z,7.43
2019-04-11T10:20:28.802Z,7.43
2019-04-11T10:23:16.470Z,6.83
2019-04-11T10:25:51.642Z,9.47
2019-04-11T10:28:44.256Z,7.87
2019-04-11T10:31:22.199Z,5.97
2019-04-11T10:33:59.409Z,7.87
2019-04-11T10:36:32.355Z,6.57
2019-04-11T10:39:13.216Z,9.80
2019-04-11T10:41:42.327Z,6.47
2019-04-11T10:44:09.703Z,10.13
2019-04-11T10:46:45.744Z,8.73
2019-04-11T10:49:21.981Z,9.03
2019-04-11T10:52:11.987Z,7.87
2019-04-11T10:54:40.816Z,10.13
2019-04-11T10:57:32.028Z,5.63
2019-04-11T10:59:59.431Z,8.53
2019-04-11T11:02:49.399Z,7.47
2019-04-11T11:05:19.135Z,5.10
2019-04-11T11:07:46.066Z,6.20
2019-04-11T11:10:16.093Z,6.13
2019-04-11T11:13:11.793Z,8.73
2019-04-11T11:15:42.652Z,5.17
2019-04-11T11:18:52.915Z,7.22
2019-04-11T11:21:02.266Z,8.30
2019-04-11T11:23:45.830Z,9.55
2019-04-11T11:26:22.577Z,6.42
2019-04-11T11:29:16.882Z,5.50
2019-04-11T11:31:54.450Z,8.90
2019-04-11T11:34:38.843Z,5.65
2019-04-11T11:37:35.420Z,6.12
2019-04-11T11:40:38.443Z,8.55
2019-04-11T11:43:19.032Z,6.42
2019-04-11T11:46:12.341Z,6.12
2019-04-11T11:48:41.751Z,7.03
2019-04-11T11:51:20.911Z,6.12
2019-04-11T11:54:07.172Z,7.15
2019-04-11T11:56:35.426Z,6.47
2019-04-11T11:59:20.539Z,7.08
2019-04-11T12:02:00.267Z,11.73
2019-04-11T12:04:49.764Z,5.35
2019-04-11T12:07:18.940Z,6.37
2019-04-11T12:10:15.466Z,6.37
2019-04-11T12:13:04.910Z,7.15
2019-04-11T12:15:54.830Z,7.92
2019-04-11T12:18:43.952Z,6.30
2019-04-11T12:21:11.521Z,9.08
2019-04-11T12:24:03.779Z,6.42
2019-04-11T12:26:30.399Z,7.03
2019-04-11T12:29:10.364Z,7.00
2019-04-11T12:31:38.013Z,8.10
2019-04-11T12:34:44.998Z,6.45
2019-04-11T12:37:19.812Z,7.95
2019-04-11T12:40:00.786Z,5.92
2019-04-11T12:42:31.225Z,8.35
2019-04-11T12:45:16.747Z,7.58
2019-04-11T12:47:47.141Z,6.63
2019-04-11T12:50:30.800Z,7.83
2019-04-11T12:53:09.168Z,8.50
2019-04-11T12:55:58.411Z,8.27
2019-04-11T12:58:47.448Z,6.50
2019-04-11T13:01:33.987Z,6.60
2019-04-11T13:04:21.749Z,7.13
2019-04-11T13:07:14.259Z,7.10
2019-04-11T13:09:47.971Z,9.40
2019-04-11T13:12:23.109Z,9.50
2019-04-11T13:15:12.074Z,9.87
2019-04-11T13:17:41.791Z,7.63
2019-04-11T13:20:26.957Z,10.07
2019-04-11T13:22:56.368Z,7.80
2019-04-11T13:25:54.039Z,9.10
2019-04-11T13:28:20.919Z,8.00
2019-04-11T13:31:16.310Z,6.70
2019-04-11T13:33:43.350Z,9.37
2019-04-11T13:36:41.772Z,10.00
2019-04-11T13:39:08.855Z,10.50
2019-04-11T13:41:44.027Z,7.70
2019-04-11T13:44:31.567Z,8.30
2019-04-11T13:47:15.743Z,10.90
2019-04-11T13:49:44.584Z,11.60
2019-04-11T13:52:33.874Z,8.30
2019-04-11T13:55:09.166Z,8.97
2019-04-11T13:57:58.469Z,9.47
2019-04-11T14:00:40.257Z,10.23
2019-04-11T14:03:18.563Z,9.37
2019-04-11T14:05:45.531Z,6.17
2019-04-11T14:08:17.885Z,8.23
2019-04-11T14:10:57.313Z,9.77
2019-04-11T14:13:34.630Z,9.33
2019-04-11T14:16:04.993Z,8.03
2019-04-11T14:18:51.507Z,9.10
2019-04-11T14:21:19.897Z,9.40
2019-04-11T14:23:55.816Z,6.90
2019-04-11T14:26:30.863Z,12.37
2019-04-11T14:29:16.165Z,8.53
2019-04-11T14:31:58.454Z,12.97
2019-04-11T14:34:57.256Z,10.80
2019-04-11T14:37:37.737Z,7.73
2019-04-11T14:40:04.570Z,7.17
2019-04-11T14:42:45.738Z,11.13
2019-04-11T14:45:25.402Z,9.50
2019-04-11T14:48:14.700Z,10.60
2019-04-11T14:50:57.264Z,8.47
2019-04-11T14:53:42.123Z,8.97
2019-04-11T14:56:09.071Z,11.37
2019-04-11T14:59:04.615Z,7.20
2019-04-11T15:01:31.513Z,7.23
2019-04-11T15:04:24.044Z,11.10
2019-04-11T15:06:51.724Z,9.13
2019-04-11T15:09:38.283Z,6.67
2019-04-11T15:12:17.853Z,10.50
2019-04-11T15:15:22.959Z,13.50
2019-04-11T15:17:55.624Z,9.47
2019-04-11T15:20:24.598Z,10.43
2019-04-11T15:22:55.651Z,8.07
2019-04-11T15:25:40.852Z,8.20
2019-04-11T15:28:30.427Z,13.17
2019-04-11T15:31:00.896Z,7.67
2019-04-11T15:33:50.323Z,7.30
2019-04-11T15:36:18.655Z,10.93
2019-04-11T15:39:07.383Z,9.90
2019-04-11T15:41:34.463Z,12.97
2019-04-11T15:44:19.732Z,11.37
2019-04-11T15:46:47.880Z,6.50
2019-04-11T15:49:34.938Z,9.27
2019-04-11T15:52:10.983Z,9.33
2019-04-11T15:54:53.581Z,7.07
2019-04-11T15:57:31.575Z,7.17
2019-04-11T16:00:20.669Z,8.60
2019-04-11T16:03:05.807Z,7.40
2019-04-11T16:05:52.457Z,8.50
2019-04-11T16:08:30.760Z,8.77
2019-04-11T16:11:17.291Z,9.03
2019-04-11T16:13:51.643Z,9.97
2019-04-11T16:16:21.164Z,9.27
2019-04-11T16:19:06.384Z,8.57
2019-04-11T16:21:44.745Z,8.00
2019-04-11T16:24:18.149Z,7.37
2019-04-11T16:26:53.175Z,12.13
2019-04-11T16:29:24.519Z,7.27
2019-04-11T16:31:52.421Z,10.37
2019-04-11T16:34:48.143Z,10.27
2019-04-11T16:37:10.946Z,7.60
2019-04-11T16:39:55.974Z,9.67
2019-04-11T16:42:28.607Z,8.10
2019-04-11T16:45:15.091Z,7.43
2019-04-11T16:48:13.684Z,8.13
2019-04-11T16:50:40.711Z,11.37
2019-04-11T16:53:10.363Z,10.03
2019-04-11T16:55:36.871Z,7.17
2019-04-11T16:58:04.124Z,7.90
2019-04-11T17:00:31.101Z,7.47
2019-04-11T17:02:58.071Z,8.90
2019-04-11T17:05:26.744Z,9.40
2019-04-11T17:08:25.990Z,10.83
2019-04-11T17:11:08.036Z,7.67
2019-04-11T17:13:35.049Z,6.70
2019-04-11T17:16:02.795Z,7.60
2019-04-11T17:18:34.089Z,10.07
2019-04-11T17:20:58.374Z,7.40
2019-04-11T17:23:25.359Z,7.13
2019-04-11T17:25:53.009Z,7.10
2019-04-11T17:28:22.775Z,7.07
2019-04-11T17:30:49.440Z,10.23
2019-04-11T17:33:16.361Z,7.90
2019-04-11T17:35:43.339Z,6.37
2019-04-11T17:38:10.358Z,8.03
2019-04-11T17:40:39.428Z,7.30
2019-04-11T17:43:06.116Z,10.50
2019-04-11T17:45:33.045Z,7.17
2019-04-11T17:47:59.990Z,8.93
2019-04-11T17:50:26.995Z,5.97
2019-04-11T17:52:54.774Z,7.97
2019-04-11T17:55:24.019Z,12.70
2019-04-11T17:58:00.818Z,11.33
2019-04-11T18:00:31.463Z,8.63
2019-04-11T18:03:01.874Z,12.63
2019-04-11T18:05:31.395Z,11.70
2019-04-11T18:07:58.898Z,9.20
2019-04-11T18:10:26.506Z,8.27
2019-04-11T18:12:55.801Z,9.37
2019-04-11T18:15:25.421Z,9.27
2019-04-11T18:17:52.880Z,7.43
2019-04-11T18:20:20.607Z,8.27
2019-04-11T18:22:50.366Z,7.20
2019-04-11T18:25:20.758Z,6.10
2019-04-11T18:27:52.346Z,6.93
2019-04-11T18:30:20.960Z,7.27
2019-04-11T18:32:52.306Z,7.43
2019-04-11T18:35:20.366Z,8.93
2019-04-11T18:37:49.058Z,6.67
2019-04-11T18:40:20.148Z,6.57
2019-04-11T18:42:47.413Z,9.20
2019-04-11T18:45:19.158Z,10.90
2019-04-11T18:47:46.176Z,7.43
2019-04-11T18:50:14.349Z,14.30
2019-04-11T18:52:42.916Z,8.90
2019-04-11T18:55:10.971Z,8.77
2019-04-11T18:57:38.581Z,12.73
2019-04-11T19:00:09.164Z,11.13
2019-04-11T19:02:37.948Z,8.00
2019-04-11T19:05:05.599Z,8.00
2019-04-11T19:07:32.332Z,9.07
2019-04-11T19:09:59.264Z,9.10
2019-04-11T19:12:26.159Z,9.37
2019-04-11T19:14:53.180Z,5.90
2019-04-11T19:17:20.029Z,7.97
2019-04-11T19:19:48.929Z,8.30
2019-04-11T19:22:15.677Z,8.47
2019-04-11T19:24:42.654Z,11.20
2019-04-11T19:27:09.593Z,9.93
2019-04-11T19:29:38.981Z,8.30
2019-04-11T19:32:06.627Z,9.53
2019-04-11T19:34:37.084Z,9.13
2019-04-11T19:37:04.271Z,8.53
2019-04-11T19:39:36.124Z,11.07
2019-04-11T19:42:25.536Z,9.63
2019-04-11T19:44:54.024Z,8.73
2019-04-11T19:47:24.761Z,7.03
2019-04-11T19:49:54.450Z,10.80
2019-04-11T19:52:26.773Z,7.37
2019-04-11T19:54:55.641Z,13.13
2019-04-11T19:57:23.448Z,13.03
2019-04-11T19:59:53.254Z,6.80
2019-04-11T20:02:23.182Z,9.17
2019-04-11T20:04:50.251Z,10.17
2019-04-11T20:07:21.345Z,7.80
2019-04-11T20:09:48.833Z,10.73
2019-04-11T20:12:16.662Z,7.20
2019-04-11T20:14:48.713Z,8.60
2019-04-11T20:17:19.825Z,9.48
2019-04-11T20:20:06.818Z,9.90
2019-04-11T20:22:39.798Z,7.25
2019-04-11T20:25:06.787Z,8.47
2019-04-11T20:27:34.721Z,7.93
2019-04-11T20:30:04.122Z,7.30
2019-04-11T20:32:35.499Z,10.43
2019-04-11T20:35:04.214Z,12.43
2019-04-11T20:37:39.223Z,8.40
2019-04-11T20:40:01.069Z,8.43
2019-04-11T20:42:28.843Z,10.30
2019-04-11T20:45:01.182Z,8.63
2019-04-11T20:47:38.124Z,9.83
2019-04-11T20:50:08.872Z,9.40
2019-04-11T20:52:40.223Z,13.13
2019-04-11T20:55:10.942Z,8.63
2019-04-11T20:57:40.446Z,8.30
2019-04-11T21:00:12.037Z,7.10
2019-04-11T21:02:38.291Z,6.97
2019-04-11T21:05:05.307Z,9.10
2019-04-11T21:07:32.581Z,8.17
2019-04-11T21:10:03.595Z,7.20
2019-04-11T21:12:28.627Z,11.57
2019-04-11T21:14:55.643Z,6.40
2019-04-11T21:17:28.160Z,10.57
2019-04-11T21:19:55.300Z,8.47
2019-04-11T21:22:24.299Z,7.20
2019-04-11T21:24:50.851Z,9.63
2019-04-11T21:27:18.651Z,10.13
2019-04-11T21:29:45.511Z,8.20
2019-04-11T21:32:14.032Z,8.20
2019-04-11T21:34:41.258Z,8.23
2019-04-11T21:37:08.137Z,9.57
2019-04-11T21:39:34.910Z,6.47
2019-04-11T21:42:05.881Z,7.87
2019-04-11T21:44:31.019Z,9.20
2019-04-11T21:46:58.047Z,9.50
2019-04-11T21:49:24.993Z,10.27
2019-04-11T21:51:51.920Z,7.73
2019-04-11T21:54:18.840Z,7.30
2019-04-11T21:56:49.305Z,7.20
2019-04-11T21:59:14.511Z,6.73
2019-04-11T22:01:42.277Z,6.63
2019-04-11T22:04:09.496Z,7.30
2019-04-11T22:06:37.421Z,11.43
2019-04-11T22:09:06.559Z,6.20
2019-04-11T22:11:33.605Z,8.47
2019-04-11T22:14:00.591Z,7.30
2019-04-11T22:16:27.487Z,5.97
2019-04-11T22:18:54.524Z,6.47
2019-04-11T22:21:21.398Z,7.57
2019-04-11T22:23:49.241Z,7.67
2019-04-11T22:26:16.263Z,8.97
2019-04-11T22:28:43.239Z,7.73
2019-04-11T22:31:10.190Z,9.07
2019-04-11T22:33:41.415Z,6.67
2019-04-11T22:36:08.293Z,6.27
2019-04-11T22:38:35.185Z,6.77
2019-04-11T22:41:02.748Z,5.73
2019-04-11T22:43:29.811Z,6.87
2019-04-11T22:45:57.040Z,6.10
2019-04-11T22:48:23.845Z,7.87
2019-04-11T22:50:50.847Z,6.60
2019-04-11T22:53:17.709Z,8.33
2019-04-11T22:55:44.587Z,7.83
2019-04-11T22:58:13.925Z,7.23
2019-04-11T23:00:40.136Z,7.03
2019-04-11T23:03:28.974Z,6.87
2019-04-11T23:05:55.845Z,9.47
2019-04-11T23:08:22.788Z,10.67
2019-04-11T23:10:49.827Z,6.17
2019-04-11T23:13:16.572Z,7.43
2019-04-11T23:15:44.375Z,9.57
2019-04-11T23:18:11.872Z,9.63
2019-04-11T23:20:43.802Z,8.07
2019-04-11T23:23:11.078Z,7.37
2019-04-11T23:25:37.802Z,6.00
2019-04-11T23:28:04.767Z,6.40
2019-04-11T23:30:31.562Z,8.60
2019-04-11T23:32:58.421Z,7.23
2019-04-11T23:35:25.197Z,8.63
2019-04-11T23:37:52.129Z,8.80
2019-04-11T23:40:20.875Z,7.23
2019-04-11T23:42:50.088Z,7.67
2019-04-11T23:45:21.399Z,9.47
2019-04-11T23:47:48.207Z,8.07
2019-04-11T23:50:15.147Z,5.10
2019-04-11T23:52:42.052Z,7.90
2019-04-11T23:55:09.223Z,6.20
2019-04-11T23:57:36.084Z,7.57
